Time;durP1;ratioP1;P1;durP2;ratioP2;P2;SDS_P1;SDS_P2;PMS_P1;PMS_P2;Temp;Humidity;BMP_temperature;BMP_pressure;BME280_temperature;BME280_humidity;BME280_pressure;Samples;Min_cycle;Max_cycle;Signal;HPM_P1;HPM_P2
2022/07/20 00:00:08;;;;;;;5.72;1.98;;;27.00;51.30;;;;;;6071231;23;94782;-89
2022/07/20 00:02:34;;;;;;;3.00;1.88;;;27.00;51.30;;;;;;6071227;23;92465;-88
2022/07/20 00:05:00;;;;;;;3.25;1.95;;;27.00;51.50;;;;;;6098451;23;92240;-88
2022/07/20 00:07:25;;;;;;;2.03;1.58;;;27.00;51.40;;;;;;6071728;23;96252;-88
2022/07/20 00:12:35;;;;;;;2.33;1.63;;;27.00;51.60;;;;;;6098173;23;91861;-88
2022/07/20 00:15:01;;;;;;;2.35;1.70;;;27.00;51.80;;;;;;6070368;23;91983;-88
2022/07/20 00:17:27;;;;;;;2.90;1.88;;;27.00;51.50;;;;;;6095387;23;93670;-88
2022/07/20 00:19:53;;;;;;;3.38;2.00;;;27.00;51.60;;;;;;6070200;23;97546;-88
2022/07/20 00:22:18;;;;;;;2.42;1.63;;;27.00;51.50;;;;;;6095682;23;92175;-89
2022/07/20 00:24:44;;;;;;;2.50;1.75;;;27.00;51.50;;;;;;6097110;23;93468;-87
2022/07/20 00:27:09;;;;;;;2.63;1.92;;;27.00;51.60;;;;;;6096520;23;96261;-88
2022/07/20 00:29:35;;;;;;;2.17;1.73;;;27.00;51.60;;;;;;6070853;23;96269;-89
2022/07/20 00:32:01;;;;;;;3.63;1.95;;;26.90;51.60;;;;;;6006621;23;92203;-88
2022/07/20 00:34:26;;;;;;;3.85;2.22;;;27.00;51.70;;;;;;6007004;23;91635;-88
2022/07/20 00:36:56;;;;;;;2.20;1.52;;;27.00;51.50;;;;;;6007751;23;92816;-87
2022/07/20 00:39:22;;;;;;;2.72;1.67;;;27.00;51.70;;;;;;6007202;23;95788;-87
2022/07/20 00:41:47;;;;;;;2.15;1.42;;;27.00;51.70;;;;;;6007666;23;92998;-87
2022/07/20 00:44:13;;;;;;;4.28;2.08;;;26.90;51.80;;;;;;6007713;23;91966;-88
2022/07/20 00:46:41;;;;;;;2.22;1.83;;;26.90;51.80;;;;;;6008012;23;94386;-88
2022/07/20 00:49:09;;;;;;;2.75;1.65;;;26.90;51.80;;;;;;6006863;23;92585;-88
2022/07/20 00:51:35;;;;;;;1.85;1.40;;;27.00;51.80;;;;;;6006975;23;92349;-88
2022/07/20 00:54:03;;;;;;;3.20;1.77;;;26.90;51.80;;;;;;6006601;23;92534;-88
2022/07/20 00:56:29;;;;;;;2.22;1.67;;;26.90;51.60;;;;;;6007195;23;94486;-88
2022/07/20 00:58:54;;;;;;;3.35;1.60;;;26.90;51.80;;;;;;6007162;23;93139;-87
2022/07/20 01:01:21;;;;;;;2.55;1.40;;;26.90;51.90;;;;;;6007211;23;92434;-88
2022/07/20 01:03:46;;;;;;;3.30;1.75;;;26.90;51.80;;;;;;6079267;23;92344;-88
2022/07/20 01:06:12;;;;;;;1.55;1.33;;;26.90;51.80;;;;;;6097109;23;94528;-88
2022/07/20 01:08:38;;;;;;;1.77;1.40;;;26.90;51.80;;;;;;6097252;23;94063;-87
2022/07/20 01:11:04;;;;;;;2.42;1.70;;;26.90;51.80;;;;;;6071247;23;92476;-88
2022/07/20 01:13:32;;;;;;;4.10;1.85;;;26.90;52.00;;;;;;6097931;23;92350;-87
2022/07/20 01:16:07;;;;;;;3.35;1.60;;;26.90;51.90;;;;;;6071235;23;96241;-88
2022/07/20 01:18:33;;;;;;;3.00;2.05;;;26.90;51.70;;;;;;6097734;23;92204;-87
2022/07/20 01:21:07;;;;;;;2.75;1.67;;;26.90;51.70;;;;;;6098193;23;91784;-87
2022/07/20 01:23:33;;;;;;;2.00;1.52;;;26.90;51.80;;;;;;6097532;23;91224;-88
2022/07/20 01:25:59;;;;;;;3.58;1.63;;;26.90;52.00;;;;;;6097335;23;93883;-88
2022/07/20 01:28:27;;;;;;;1.90;1.63;;;26.90;52.10;;;;;;6097137;23;93323;-88
2022/07/20 01:30:53;;;;;;;3.33;1.88;;;26.90;52.10;;;;;;6097799;23;93350;-88
2022/07/20 01:33:19;;;;;;;2.22;1.48;;;26.90;52.10;;;;;;6071414;23;92445;-87
2022/07/20 01:35:45;;;;;;;3.03;1.60;;;26.80;52.00;;;;;;6097263;23;93667;-88
2022/07/20 01:38:10;;;;;;;1.95;1.60;;;26.80;52.10;;;;;;6096721;23;92898;-88
2022/07/20 01:40:36;;;;;;;3.40;2.10;;;26.90;52.20;;;;;;6097663;23;92599;-88
2022/07/20 01:43:02;;;;;;;2.42;1.60;;;26.80;52.10;;;;;;6097710;23;91936;-88
2022/07/20 01:45:45;;;;;;;3.10;2.00;;;26.90;52.30;;;;;;6097716;23;92717;-88
2022/07/20 01:48:11;;;;;;;2.03;1.55;;;26.80;52.10;;;;;;6097726;23;93159;-88
2022/07/20 01:50:38;;;;;;;2.40;2.10;;;26.90;52.20;;;;;;6097810;23;92355;-88
2022/07/20 01:53:05;;;;;;;2.17;1.75;;;26.80;52.20;;;;;;6070920;23;92294;-88
2022/07/20 01:55:30;;;;;;;3.13;2.10;;;26.80;52.20;;;;;;6096449;23;95213;-88
2022/07/20 01:57:56;;;;;;;2.70;1.70;;;26.80;52.30;;;;;;6097749;23;93604;-88
2022/07/20 02:00:22;;;;;;;2.65;1.70;;;26.80;52.30;;;;;;6095611;23;92219;-87
2022/07/20 02:02:48;;;;;;;2.75;1.83;;;26.80;52.30;;;;;;6098664;23;91851;-88
2022/07/20 02:05:14;;;;;;;2.72;1.63;;;26.80;52.20;;;;;;6097392;23;93170;-88
2022/07/20 02:07:40;;;;;;;3.13;1.83;;;26.80;52.40;;;;;;6096762;23;91808;-88
2022/07/20 02:10:08;;;;;;;2.60;1.75;;;26.80;52.30;;;;;;6097606;23;91920;-88
2022/07/20 02:12:34;;;;;;;1.88;1.50;;;26.80;52.20;;;;;;6097891;23;91109;-88
2022/07/20 02:15:00;;;;;;;2.78;1.70;;;26.80;52.30;;;;;;6070784;23;96502;-88
2022/07/20 02:17:25;;;;;;;2.85;1.60;;;26.80;52.20;;;;;;6096869;23;93321;-88
2022/07/20 02:20:00;;;;;;;1.83;1.60;;;26.80;52.40;;;;;;6096940;23;93373;-88
2022/07/20 02:22:27;;;;;;;2.53;1.70;;;26.80;52.30;;;;;;6071516;23;91751;-89
2022/07/20 02:24:53;;;;;;;2.10;1.55;;;26.80;52.30;;;;;;6070955;23;96900;-88
2022/07/20 02:27:18;;;;;;;2.70;1.90;;;26.80;52.40;;;;;;6070500;23;94696;-88
2022/07/20 02:29:44;;;;;;;2.38;1.70;;;26.80;52.40;;;;;;6098271;23;92529;-88
2022/07/20 02:32:10;;;;;;;3.00;1.75;;;26.80;52.40;;;;;;6071166;23;92428;-88
2022/07/20 02:34:35;;;;;;;3.00;1.77;;;26.80;52.50;;;;;;6097051;23;93055;-88
2022/07/20 02:37:01;;;;;;;2.35;1.30;;;26.80;52.40;;;;;;6097712;23;93686;-88
2022/07/20 02:39:26;;;;;;;1.73;1.63;;;26.80;52.60;;;;;;6097379;23;91870;-88
2022/07/20 02:41:52;;;;;;;2.40;1.80;;;26.80;52.40;;;;;;6071181;23;92143;-88
2022/07/20 02:44:18;;;;;;;2.50;1.48;;;26.80;52.40;;;;;;6095778;23;94659;-88
2022/07/20 02:46:43;;;;;;;2.10;1.60;;;26.70;52.50;;;;;;6097248;23;94023;-88
2022/07/20 02:49:09;;;;;;;2.70;1.80;;;26.70;52.50;;;;;;6096742;23;93063;-88
2022/07/20 02:51:34;;;;;;;3.75;1.83;;;26.70;52.50;;;;;;6096160;23;91864;-88
2022/07/20 02:54:00;;;;;;;1.98;1.63;;;26.80;52.40;;;;;;6070044;23;95894;-88
2022/07/20 02:56:26;;;;;;;1.90;1.70;;;26.80;52.40;;;;;;6070312;23;96700;-87
2022/07/20 02:58:51;;;;;;;2.55;1.70;;;26.70;52.50;;;;;;6098059;23;92448;-89
2022/07/20 03:01:20;;;;;;;1.70;1.58;;;26.80;52.70;;;;;;6098020;23;91597;-88
2022/07/20 03:03:48;;;;;;;2.77;2.00;;;26.70;52.50;;;;;;6070719;23;95812;-88
2022/07/20 03:06:15;;;;;;;1.88;1.58;;;26.70;52.50;;;;;;6096256;23;92760;-88
2022/07/20 03:08:41;;;;;;;3.00;1.90;;;26.70;52.60;;;;;;6096294;23;93210;-88
2022/07/20 03:11:07;;;;;;;2.47;1.77;;;26.80;52.70;;;;;;6097455;23;92235;-88
2022/07/20 03:13:32;;;;;;;2.78;1.80;;;26.70;52.60;;;;;;6095213;23;96525;-88
2022/07/20 03:15:58;;;;;;;2.55;1.70;;;26.70;52.60;;;;;;6097160;23;92308;-88
2022/07/20 03:18:24;;;;;;;1.65;1.40;;;26.70;52.60;;;;;;6097726;23;91811;-88
2022/07/20 03:20:50;;;;;;;2.17;1.90;;;26.70;52.60;;;;;;6069871;23;92308;-88
2022/07/20 03:23:15;;;;;;;2.50;1.95;;;26.70;52.70;;;;;;6097041;23;93608;-88
2022/07/20 03:25:41;;;;;;;2.22;1.70;;;26.70;52.80;;;;;;6071254;23;96437;-89
2022/07/20 03:28:06;;;;;;;2.83;2.22;;;26.70;52.80;;;;;;6097155;23;91917;-88
2022/07/20 03:30:32;;;;;;;2.60;1.95;;;26.70;52.80;;;;;;6096476;23;92350;-88
2022/07/20 03:32:58;;;;;;;3.75;1.80;;;26.70;52.70;;;;;;6095406;23;94544;-88
2022/07/20 03:35:24;;;;;;;1.90;1.52;;;26.70;52.80;;;;;;6096609;23;94319;-88
2022/07/20 03:37:49;;;;;;;2.10;1.50;;;26.70;52.80;;;;;;6096589;23;92321;-88
2022/07/20 03:40:15;;;;;;;2.38;1.75;;;26.70;52.70;;;;;;6096787;23;91972;-88
2022/07/20 03:42:41;;;;;;;2.25;1.73;;;26.70;52.80;;;;;;6069378;23;96694;-87
2022/07/20 03:45:07;;;;;;;2.38;1.90;;;26.70;52.80;;;;;;6093570;23;95988;-88
2022/07/20 03:47:36;;;;;;;1.95;1.52;;;26.70;52.80;;;;;;6094949;23;92078;-88
2022/07/20 03:50:02;;;;;;;2.22;1.80;;;26.70;52.90;;;;;;6097012;23;91155;-88
2022/07/20 03:52:27;;;;;;;2.90;1.95;;;26.70;52.80;;;;;;6069476;23;96267;-88
2022/07/20 03:54:53;;;;;;;1.60;1.42;;;26.70;52.80;;;;;;6094840;23;96339;-88
2022/07/20 03:57:18;;;;;;;2.88;1.95;;;26.70;52.80;;;;;;6096954;23;92722;-88
2022/07/20 03:59:44;;;;;;;3.28;1.95;;;26.70;52.90;;;;;;6097043;23;92096;-87
2022/07/20 04:02:10;;;;;;;2.60;1.92;;;26.70;52.90;;;;;;6095931;23;93558;-88
2022/07/20 04:04:35;;;;;;;1.88;1.67;;;26.70;53.00;;;;;;6095943;23;92969;-88
2022/07/20 04:07:01;;;;;;;2.28;2.08;;;26.70;53.00;;;;;;6096624;23;92276;-88
2022/07/20 04:09:46;;;;;;;3.40;2.13;;;26.70;53.00;;;;;;6097908;23;92283;-88
2022/07/20 04:12:17;;;;;;;2.42;1.83;;;26.70;52.90;;;;;;6097947;23;93814;-88
2022/07/20 04:14:49;;;;;;;3.30;2.20;;;26.70;53.10;;;;;;6072453;23;95672;-88
2022/07/20 04:17:15;;;;;;;1.83;1.70;;;26.70;53.00;;;;;;6098603;23;92346;-88
2022/07/20 04:19:41;;;;;;;2.35;1.98;;;26.70;52.90;;;;;;6098922;23;92175;-88
2022/07/20 04:22:07;;;;;;;2.75;2.15;;;26.70;52.80;;;;;;6071702;23;97115;-88
2022/07/20 04:24:33;;;;;;;2.80;1.73;;;26.70;52.90;;;;;;6098248;23;94402;-88
2022/07/20 04:26:59;;;;;;;1.77;1.42;;;26.70;52.90;;;;;;6097687;23;92305;-88
2022/07/20 04:29:25;;;;;;;2.13;1.92;;;26.70;52.90;;;;;;6071465;23;92176;-88
2022/07/20 04:31:51;;;;;;;2.63;1.77;;;26.70;53.00;;;;;;6070842;23;95405;-87
2022/07/20 04:34:17;;;;;;;4.40;2.40;;;26.70;52.80;;;;;;6096875;23;95998;-88
2022/07/20 04:36:43;;;;;;;2.75;2.30;;;26.60;52.90;;;;;;6097558;23;92173;-88
2022/07/20 04:39:08;;;;;;;1.75;1.60;;;26.70;52.80;;;;;;6070967;23;91201;-88
2022/07/20 04:41:34;;;;;;;2.50;2.22;;;26.60;52.70;;;;;;6065169;23;95581;-88
2022/07/20 04:43:59;;;;;;;2.60;2.00;;;26.60;52.80;;;;;;6040567;23;96416;-88
2022/07/20 04:46:25;;;;;;;2.50;1.83;;;26.70;52.90;;;;;;6064518;23;93309;-87
2022/07/20 04:48:51;;;;;;;2.63;2.00;;;26.70;52.90;;;;;;6064411;23;92354;-87
2022/07/20 04:51:16;;;;;;;2.42;1.92;;;26.70;52.80;;;;;;6064314;23;93241;-88
2022/07/20 04:53:42;;;;;;;2.10;1.90;;;26.60;52.80;;;;;;6040114;23;95292;-87
2022/07/20 04:56:09;;;;;;;2.25;2.00;;;26.70;52.90;;;;;;6065726;23;91996;-88
2022/07/20 04:58:50;;;;;;;2.22;2.03;;;26.70;52.90;;;;;;6065688;23;91800;-88
2022/07/20 05:01:15;;;;;;;2.00;1.77;;;26.70;52.90;;;;;;6065671;23;93108;-87
2022/07/20 05:03:41;;;;;;;2.20;2.00;;;26.70;52.70;;;;;;6065476;23;92888;-88
2022/07/20 05:06:07;;;;;;;2.13;1.83;;;26.70;52.80;;;;;;6065943;23;92001;-88
2022/07/20 05:08:32;;;;;;;2.20;1.90;;;26.70;52.70;;;;;;6041156;23;91895;-88
2022/07/20 05:10:58;;;;;;;2.53;1.90;;;26.80;52.70;;;;;;6064321;23;94996;-88
2022/07/20 05:13:23;;;;;;;2.40;1.83;;;26.80;52.80;;;;;;6092077;23;94255;-88
2022/07/20 05:15:49;;;;;;;2.30;1.80;;;26.80;52.70;;;;;;6096136;23;92348;-87
2022/07/20 05:18:15;;;;;;;1.58;1.48;;;26.80;52.60;;;;;;6070880;23;92366;-87
2022/07/20 05:20:40;;;;;;;3.53;1.95;;;26.80;52.60;;;;;;6097145;23;93620;-88
2022/07/20 05:23:06;;;;;;;2.15;1.70;;;26.80;52.30;;;;;;6097613;23;93190;-88
2022/07/20 05:25:31;;;;;;;1.63;1.48;;;26.80;52.40;;;;;;6098294;23;92035;-87
2022/07/20 05:27:57;;;;;;;2.40;1.98;;;26.80;52.40;;;;;;6098007;23;91658;-87
2022/07/20 05:30:22;;;;;;;1.80;1.70;;;26.90;52.50;;;;;;6097825;23;94385;-87
2022/07/20 05:32:48;;;;;;;2.40;1.90;;;26.90;52.30;;;;;;6097466;23;93765;-87
2022/07/20 05:35:14;;;;;;;2.55;1.95;;;26.90;52.30;;;;;;6071406;23;93288;-88
2022/07/20 05:37:39;;;;;;;2.75;1.77;;;26.90;52.20;;;;;;6097667;23;92371;-87
2022/07/20 05:40:13;;;;;;;1.73;1.63;;;27.00;52.30;;;;;;6096329;23;95848;-87
2022/07/20 05:42:39;;;;;;;2.00;1.80;;;26.90;52.20;;;;;;6070202;23;94803;-88
2022/07/20 05:45:05;;;;;;;2.28;1.88;;;26.90;52.30;;;;;;6071412;23;92269;-87
2022/07/20 05:47:31;;;;;;;2.63;2.08;;;27.00;52.80;;;;;;6070799;23;92493;-87
2022/07/20 05:49:57;;;;;;;2.92;1.90;;;26.90;52.70;;;;;;6070905;23;95242;-88
2022/07/20 05:52:23;;;;;;;2.28;2.08;;;27.00;52.70;;;;;;6097484;23;93168;-87
2022/07/20 05:54:48;;;;;;;2.92;2.17;;;26.90;52.70;;;;;;6098149;23;92161;-88
2022/07/20 05:57:14;;;;;;;2.08;1.85;;;27.00;52.90;;;;;;6097958;23;92337;-87
2022/07/20 05:59:40;;;;;;;2.30;2.03;;;26.90;52.80;;;;;;6097010;23;94774;-88
2022/07/20 06:02:07;;;;;;;2.60;2.10;;;27.00;52.80;;;;;;6071347;23;94931;-88
2022/07/20 06:04:32;;;;;;;2.65;2.08;;;27.00;52.80;;;;;;6071186;23;92175;-87
2022/07/20 06:06:58;;;;;;;2.65;1.98;;;27.00;53.00;;;;;;6071730;23;91894;-87
2022/07/20 06:09:24;;;;;;;2.72;2.25;;;27.00;52.80;;;;;;6095495;23;96118;-88
2022/07/20 06:11:49;;;;;;;1.88;1.50;;;27.00;52.80;;;;;;6097297;23;92408;-88
2022/07/20 06:14:15;;;;;;;2.67;2.20;;;27.10;52.80;;;;;;6097299;23;91937;-87
2022/07/20 06:16:41;;;;;;;3.10;1.95;;;27.10;52.80;;;;;;6097478;23;91657;-88
2022/07/20 06:19:06;;;;;;;2.42;2.10;;;27.10;52.70;;;;;;6071704;23;95650;-87
2022/07/20 06:21:32;;;;;;;5.35;3.90;;;27.10;52.80;;;;;;6097193;23;93271;-84
2022/07/20 06:23:58;;;;;;;16.55;9.73;;;27.10;52.70;;;;;;6068534;23;93255;-82
2022/07/20 06:26:26;;;;;;;15.90;10.75;;;27.20;53.00;;;;;;6096668;23;92517;-84
2022/07/20 06:28:52;;;;;;;22.92;13.43;;;27.20;53.00;;;;;;6095901;23;93572;-84
2022/07/20 06:31:17;;;;;;;25.63;13.57;;;27.20;53.10;;;;;;6095095;23;92921;-84
2022/07/20 06:33:43;;;;;;;27.88;14.98;;;27.10;53.50;;;;;;6099324;23;93267;-84
2022/07/20 06:36:09;;;;;;;31.67;16.90;;;27.10;54.20;;;;;;6068154;23;92474;-83
2022/07/20 06:38:34;;;;;;;29.27;17.60;;;27.10;53.80;;;;;;6095490;23;93470;-83
2022/07/20 06:41:01;;;;;;;29.70;16.55;;;27.00;53.90;;;;;;6095544;23;92141;-83
2022/07/20 06:43:26;;;;;;;24.33;16.20;;;27.00;54.00;;;;;;6095428;23;92004;-83
2022/07/20 06:45:52;;;;;;;32.47;16.77;;;27.10;53.90;;;;;;6094006;23;92773;-83
2022/07/20 06:48:19;;;;;;;25.40;16.08;;;27.10;54.30;;;;;;6094962;23;94021;-82
2022/07/20 06:50:45;;;;;;;23.85;15.13;;;27.10;54.40;;;;;;6094192;23;94514;-82
2022/07/20 06:53:10;;;;;;;25.75;15.77;;;27.10;54.40;;;;;;6094514;23;92070;-83
2022/07/20 06:55:36;;;;;;;23.98;15.82;;;27.10;54.20;;;;;;6068139;23;92207;-83
2022/07/20 06:58:02;;;;;;;27.80;14.45;;;27.10;54.10;;;;;;6094363;23;93597;-83
2022/07/20 07:00:29;;;;;;;21.00;14.05;;;27.10;54.40;;;;;;6096587;23;95349;-83
2022/07/20 07:02:55;;;;;;;26.05;15.98;;;27.10;54.30;;;;;;6096994;23;92076;-83
2022/07/20 07:05:21;;;;;;;19.35;14.40;;;27.10;54.20;;;;;;6070309;23;91170;-82
2022/07/20 07:07:48;;;;;;;23.48;14.40;;;27.10;54.00;;;;;;6096707;23;93241;-83
2022/07/20 07:10:16;;;;;;;22.75;13.57;;;27.00;53.80;;;;;;6094266;23;93825;-82
2022/07/20 07:12:45;;;;;;;21.40;13.43;;;27.00;53.70;;;;;;6093697;23;93314;-83
2022/07/20 07:15:10;;;;;;;24.67;13.13;;;27.00;53.80;;;;;;6095363;23;92359;-83
2022/07/20 07:17:36;;;;;;;21.55;12.23;;;27.00;54.00;;;;;;6095202;23;93066;-82
2022/07/20 07:20:03;;;;;;;22.33;13.30;;;27.10;53.60;;;;;;6095955;23;93301;-83
2022/07/20 07:22:30;;;;;;;23.45;12.93;;;27.10;53.60;;;;;;6097315;23;91956;-83
2022/07/20 07:24:56;;;;;;;20.73;12.38;;;27.10;53.50;;;;;;6069705;23;92026;-83
2022/07/20 07:27:22;;;;;;;22.08;12.27;;;27.10;53.50;;;;;;6092518;23;92246;-83
2022/07/20 07:29:48;;;;;;;16.52;11.93;;;27.10;54.20;;;;;;6095128;23;93151;-84
2022/07/20 07:32:13;;;;;;;21.58;11.57;;;27.10;53.30;;;;;;6096143;23;92298;-84
2022/07/20 07:34:39;;;;;;;22.63;11.77;;;27.00;53.30;;;;;;6095777;23;92257;-84
2022/07/20 07:37:05;;;;;;;14.85;11.30;;;27.00;53.50;;;;;;6094936;23;93948;-84
2022/07/20 07:39:30;;;;;;;16.10;10.43;;;27.00;53.30;;;;;;5980330;23;92961;-85
2022/07/20 07:41:56;;;;;;;16.60;10.95;;;27.00;53.30;;;;;;6097424;23;91825;-84
2022/07/20 07:44:22;;;;;;;15.95;10.23;;;27.00;53.40;;;;;;6096664;23;91867;-84
2022/07/20 07:46:47;;;;;;;20.98;10.95;;;27.00;53.30;;;;;;6096031;23;93317;-84
2022/07/20 07:49:13;;;;;;;26.55;12.45;;;26.90;53.50;;;;;;6070280;23;96534;-84
2022/07/20 07:51:39;;;;;;;36.42;15.73;;;27.00;53.80;;;;;;6070415;23;91970;-84
2022/07/20 07:54:06;;;;;;;48.70;14.77;;;27.00;53.00;;;;;;6098021;23;91205;-84
2022/07/20 07:56:35;;;;;;;40.42;15.27;;;27.00;53.20;;;;;;6097027;23;92332;-85
2022/07/20 07:59:01;;;;;;;39.05;14.77;;;27.00;53.20;;;;;;6069825;23;95778;-84
2022/07/20 08:01:27;;;;;;;39.75;14.48;;;26.90;53.00;;;;;;6096632;23;93156;-85
2022/07/20 08:03:53;;;;;;;38.17;13.25;;;26.90;53.30;;;;;;6097153;23;91866;-85
2022/07/20 08:06:18;;;;;;;27.27;12.65;;;26.90;53.40;;;;;;6070187;23;96232;-86
2022/07/20 08:08:44;;;;;;;25.88;13.65;;;26.90;53.40;;;;;;6069564;23;96669;-85
2022/07/20 08:11:10;;;;;;;26.13;12.40;;;26.90;53.30;;;;;;6070700;23;92216;-85
2022/07/20 08:13:35;;;;;;;25.45;10.30;;;26.90;53.30;;;;;;6070200;23;92214;-85
2022/07/20 08:16:01;;;;;;;18.45;9.50;;;26.90;53.10;;;;;;6096711;23;93013;-86
2022/07/20 08:18:27;;;;;;;19.95;10.60;;;26.90;53.30;;;;;;6095979;23;96315;-85
2022/07/20 08:20:52;;;;;;;16.80;10.25;;;26.90;53.30;;;;;;6097226;23;92157;-85
2022/07/20 08:23:18;;;;;;;16.83;10.00;;;26.90;53.30;;;;;;6097413;23;92146;-85
2022/07/20 08:25:44;;;;;;;14.70;9.25;;;26.90;53.50;;;;;;6096094;23;94442;-84
2022/07/20 08:28:15;;;;;;;18.13;10.07;;;27.00;53.30;;;;;;6095833;23;92311;-84
2022/07/20 08:30:43;;;;;;;21.73;10.32;;;27.00;53.10;;;;;;6097391;23;92260;-84
2022/07/20 08:33:09;;;;;;;20.90;9.93;;;27.00;53.20;;;;;;6070668;23;92366;-84
2022/07/20 08:35:41;;;;;;;11.77;7.80;;;27.00;53.20;;;;;;6072420;23;96725;-85
2022/07/20 08:38:08;;;;;;;18.42;9.00;;;27.10;53.30;;;;;;6097359;23;92922;-84
2022/07/20 08:40:34;;;;;;;15.48;9.20;;;27.10;53.40;;;;;;6098035;23;92258;-85
2022/07/20 08:43:00;;;;;;;16.13;9.13;;;27.10;53.00;;;;;;6098592;23;91206;-85
2022/07/20 08:45:26;;;;;;;14.90;8.98;;;27.10;52.90;;;;;;6096895;23;93402;-84
2022/07/20 08:47:52;;;;;;;17.23;8.80;;;27.10;52.40;;;;;;6070042;23;96469;-85
2022/07/20 08:50:23;;;;;;;16.33;8.73;;;27.10;52.10;;;;;;6096074;23;93002;-85
2022/07/20 08:52:49;;;;;;;11.73;8.30;;;27.20;52.10;;;;;;6070454;23;91908;-86
2022/07/20 08:55:15;;;;;;;16.05;8.30;;;27.20;51.80;;;;;;6071500;23;95261;-86
2022/07/20 08:57:42;;;;;;;14.63;8.18;;;27.10;51.80;;;;;;6097741;23;93473;-84
2022/07/20 09:00:08;;;;;;;13.52;8.00;;;27.10;51.50;;;;;;6098305;23;91857;-84
2022/07/20 09:03:01;;;;;;;13.48;7.45;;;27.10;51.30;;;;;;6072338;23;92122;-84
2022/07/20 09:05:28;;;;;;;12.05;7.80;;;27.10;51.30;;;;;;6071274;23;96891;-84
2022/07/20 09:07:56;;;;;;;13.75;7.63;;;27.10;51.00;;;;;;6071011;23;95443;-84
2022/07/20 09:10:24;;;;;;;10.65;7.55;;;27.10;51.10;;;;;;6071190;23;92011;-84
2022/07/20 09:12:54;;;;;;;11.27;7.30;;;27.10;51.30;;;;;;6071044;23;91951;-84
2022/07/20 09:15:40;;;;;;;12.18;7.15;;;27.10;51.30;;;;;;6070501;23;96532;-84
2022/07/20 09:18:07;;;;;;;12.00;7.25;;;27.10;51.10;;;;;;6097824;23;94418;-84
2022/07/20 09:20:34;;;;;;;11.38;7.45;;;27.10;51.60;;;;;;6071327;23;92279;-85
2022/07/20 09:23:14;;;;;;;13.40;7.20;;;27.10;51.10;;;;;;6098164;23;91873;-84
2022/07/20 09:26:05;;;;;;;11.85;7.30;;;27.20;51.40;;;;;;6096830;23;93618;-84
2022/07/20 09:28:44;;;;;;;11.32;6.85;;;27.20;51.10;;;;;;6070359;23;96044;-83
2022/07/20 09:31:14;;;;;;;9.35;6.88;;;27.20;50.70;;;;;;6070317;23;92218;-85
2022/07/20 09:34:00;;;;;;;11.77;6.60;;;27.20;50.80;;;;;;6070487;23;91331;-85
2022/07/20 09:36:29;;;;;;;8.45;6.43;;;27.20;51.20;;;;;;6006464;23;96801;-84
2022/07/20 09:39:12;;;;;;;8.85;6.25;;;27.20;51.10;;;;;;6006082;23;94989;-84
2022/07/20 09:41:40;;;;;;;10.43;6.38;;;27.20;51.00;;;;;;6006179;23;93438;-83
2022/07/20 09:44:06;;;;;;;8.85;6.30;;;27.10;51.10;;;;;;6007103;23;91835;-85
2022/07/20 09:46:35;;;;;;;10.98;6.05;;;27.10;51.20;;;;;;5980534;23;96794;-84
2022/07/20 09:49:11;;;;;;;9.40;5.93;;;27.20;51.10;;;;;;6004810;23;93568;-85
2022/07/20 09:51:42;;;;;;;9.52;6.18;;;27.20;51.00;;;;;;5982287;23;92943;-83
2022/07/20 09:54:10;;;;;;;9.75;6.28;;;27.30;50.70;;;;;;6007184;23;92031;-84
2022/07/20 09:56:40;;;;;;;8.97;6.20;;;27.30;50.80;;;;;;6006195;23;93787;-85
2022/07/20 09:59:10;;;;;;;11.75;6.72;;;27.30;50.80;;;;;;5982870;23;95332;-85
2022/07/20 10:01:39;;;;;;;10.00;6.40;;;27.30;51.20;;;;;;6006917;23;91988;-86
2022/07/20 10:04:07;;;;;;;9.13;6.93;;;27.30;51.30;;;;;;6006403;23;91954;-85
2022/07/20 10:06:35;;;;;;;13.20;6.57;;;27.30;51.40;;;;;;6017426;23;94420;-85
2022/07/20 10:09:02;;;;;;;8.45;6.22;;;27.30;51.40;;;;;;6071276;23;97413;-84
2022/07/20 10:11:28;;;;;;;10.93;6.35;;;27.40;51.70;;;;;;6071710;23;92195;-84
2022/07/20 10:13:56;;;;;;;11.95;6.20;;;27.30;51.40;;;;;;6070589;23;91880;-84
2022/07/20 10:16:48;;;;;;;10.80;6.20;;;27.40;51.50;;;;;;6070428;23;96760;-84
2022/07/20 10:19:13;;;;;;;9.02;6.20;;;27.40;51.20;;;;;;6070288;23;95111;-84
2022/07/20 10:21:40;;;;;;;8.65;5.88;;;27.40;51.10;;;;;;6098085;23;92142;-84
2022/07/20 10:24:16;;;;;;;7.82;6.00;;;27.40;51.10;;;;;;6097735;23;91208;-84
2022/07/20 10:26:42;;;;;;;9.18;5.93;;;27.40;50.70;;;;;;6097124;23;93433;-86
2022/07/20 10:29:09;;;;;;;8.80;5.40;;;27.50;50.40;;;;;;6096914;23;94132;-85
2022/07/20 10:31:52;;;;;;;7.28;4.90;;;27.50;50.10;;;;;;6095056;23;93160;-84
2022/07/20 10:34:54;;;;;;;7.10;5.15;;;27.50;50.00;;;;;;6068031;23;92019;-85
2022/07/20 10:37:39;;;;;;;9.05;5.25;;;27.60;49.70;;;;;;5948543;23;96440;-85
2022/07/20 10:41:31;;;;;;;9.45;4.97;;;27.50;49.70;;;;;;5925012;23;96054;-86
2022/07/20 10:43:22;;;;;;;7.82;5.57;;;27.60;49.70;;;;;;5839168;24;92056;-86
2022/07/20 10:45:48;;;;;;;10.70;5.70;;;27.50;50.00;;;;;;5839130;24;91853;-87
2022/07/20 10:48:14;;;;;;;10.45;5.20;;;27.50;50.40;;;;;;5839240;24;93101;-86
2022/07/20 10:50:49;;;;;;;7.45;5.35;;;27.50;50.60;;;;;;5839337;24;93451;-86
2022/07/20 10:53:14;;;;;;;9.35;5.55;;;27.40;50.70;;;;;;5816297;24;91983;-87
2022/07/20 10:55:52;;;;;;;8.15;5.25;;;27.40;50.90;;;;;;5838656;24;92621;-84
2022/07/20 10:58:23;;;;;;;10.18;5.55;;;27.40;51.10;;;;;;5838458;24;94598;-85
2022/07/20 11:00:55;;;;;;;8.85;4.93;;;27.40;51.30;;;;;;5816528;24;97271;-86
2022/07/20 11:03:23;;;;;;;10.45;5.65;;;27.40;51.70;;;;;;5840512;24;92213;-87
2022/07/20 11:06:13;;;;;;;6.85;6.10;;;27.40;51.60;;;;;;5839026;24;92261;-86
2022/07/20 11:08:48;;;;;;;11.18;5.68;;;27.40;52.00;;;;;;5838804;24;94101;-86
2022/07/20 11:11:22;;;;;;;14.23;5.60;;;27.40;51.80;;;;;;5878386;23;95160;-87
2022/07/20 11:13:49;;;;;;;7.85;5.72;;;27.60;51.70;;;;;;5954812;23;92006;-87
2022/07/20 11:16:22;;;;;;;9.85;5.88;;;27.70;51.70;;;;;;5979648;23;91210;-85
2022/07/20 11:18:48;;;;;;;9.02;5.50;;;27.90;51.70;;;;;;6045181;23;93136;-86
2022/07/20 11:21:14;;;;;;;8.73;5.90;;;27.90;52.10;;;;;;6100039;23;92940;-85
2022/07/20 11:23:47;;;;;;;7.90;5.28;;;28.00;52.10;;;;;;6073787;23;92807;-85
2022/07/20 11:26:14;;;;;;;9.43;5.63;;;27.80;51.20;;;;;;6073502;23;91825;-85
2022/07/20 11:28:52;;;;;;;9.20;6.15;;;27.60;51.60;;;;;;6100763;23;93099;-85
2022/07/20 11:31:20;;;;;;;8.10;5.55;;;27.50;51.70;;;;;;6100531;23;93322;-85
2022/07/20 11:33:48;;;;;;;11.05;5.45;;;27.50;52.10;;;;;;6073138;23;91813;-85
2022/07/20 11:36:19;;;;;;;9.85;5.72;;;27.40;52.20;;;;;;6073779;23;92249;-85
2022/07/20 11:38:53;;;;;;;15.48;6.45;;;27.50;52.30;;;;;;6098761;23;93267;-84
2022/07/20 11:41:21;;;;;;;38.55;11.45;;;27.50;52.50;;;;;;6100327;23;93082;-86
2022/07/20 11:43:51;;;;;;;40.50;10.77;;;27.50;52.70;;;;;;6099799;23;92394;-86
2022/07/20 11:46:22;;;;;;;55.60;15.65;;;27.50;52.60;;;;;;6072487;23;92318;-87
2022/07/20 11:48:58;;;;;;;57.25;16.20;;;27.50;52.80;;;;;;6098360;23;94297;-85
2022/07/20 11:51:24;;;;;;;58.28;16.13;;;27.60;52.90;;;;;;6098332;23;93719;-86
2022/07/20 11:53:50;;;;;;;52.85;15.73;;;27.70;52.80;;;;;;6073028;23;91909;-87
2022/07/20 11:56:19;;;;;;;47.28;14.35;;;27.70;53.30;;;;;;6099122;23;91861;-85
2022/07/20 11:58:47;;;;;;;44.53;13.68;;;27.70;53.40;;;;;;6098009;23;92974;-87
2022/07/20 12:01:19;;;;;;;48.63;14.15;;;27.70;53.60;;;;;;6098656;23;92977;-86
2022/07/20 12:03:54;;;;;;;43.20;12.55;;;27.80;53.90;;;;;;6073707;23;91915;-86
2022/07/20 12:06:20;;;;;;;34.58;12.50;;;27.70;53.90;;;;;;6099032;23;91205;-86
2022/07/20 12:09:02;;;;;;;29.90;10.30;;;27.70;55.40;;;;;;6098347;23;92713;-86
2022/07/20 12:11:28;;;;;;;37.83;11.07;;;27.80;54.50;;;;;;6099429;23;92840;-84
2022/07/20 12:13:54;;;;;;;25.13;9.55;;;27.80;54.70;;;;;;6098336;23;93610;-86
2022/07/20 12:16:19;;;;;;;40.42;11.10;;;27.70;54.40;;;;;;6098257;23;91893;-86
2022/07/20 12:18:51;;;;;;;36.45;12.13;;;27.70;54.60;;;;;;6099112;23;93170;-86
2022/07/20 12:21:24;;;;;;;34.95;12.43;;;27.70;55.40;;;;;;6098626;23;93323;-88
2022/07/20 12:23:51;;;;;;;35.88;11.27;;;27.70;55.10;;;;;;6072553;23;92203;-87
2022/07/20 12:26:23;;;;;;;41.13;12.57;;;27.70;54.70;;;;;;6072009;23;92574;-87
2022/07/20 12:28:49;;;;;;;30.35;11.20;;;27.70;55.40;;;;;;6096687;23;93159;-88
2022/07/20 12:31:17;;;;;;;33.90;12.07;;;27.70;55.30;;;;;;6069986;23;96218;-87
2022/07/20 12:34:01;;;;;;;32.83;10.48;;;27.80;55.90;;;;;;6097077;23;92016;-84
2022/07/20 12:36:35;;;;;;;32.40;10.13;;;27.90;55.60;;;;;;6096037;23;92492;-85
2022/07/20 12:39:02;;;;;;;27.65;10.70;;;28.00;55.80;;;;;;6095109;23;94370;-83
2022/07/20 12:41:28;;;;;;;30.23;9.45;;;28.00;54.80;;;;;;6095577;23;94339;-84
2022/07/20 12:43:54;;;;;;;25.05;9.15;;;28.00;54.50;;;;;;6096619;23;92009;-85
2022/07/20 12:46:19;;;;;;;27.73;9.55;;;28.10;54.90;;;;;;6094933;23;92479;-85